createdAt,value
2023-04-06T00:01:06.072Z,6.81
2023-04-06T00:03:33.225Z,6.80
2023-04-06T00:06:00.698Z,6.67
2023-04-06T00:08:28.168Z,6.75
2023-04-06T00:10:55.460Z,6.86
2023-04-06T00:13:22.698Z,6.89
2023-04-06T00:15:49.833Z,6.89
2023-04-06T00:18:17.122Z,6.78
2023-04-06T00:20:44.262Z,6.65
2023-04-06T00:23:11.369Z,6.40
2023-04-06T00:25:38.447Z,6.38
2023-04-06T00:28:05.738Z,6.62
2023-04-06T00:30:32.850Z,6.68
2023-04-06T00:33:00.104Z,6.78
2023-04-06T00:35:27.319Z,6.69
2023-04-06T00:37:54.375Z,6.57
2023-04-06T00:40:21.491Z,6.71
2023-04-06T00:43:07.958Z,6.80
2023-04-06T00:45:35.024Z,7.02
2023-04-06T00:48:02.968Z,7.06
2023-04-06T00:50:30.408Z,6.95
2023-04-06T00:52:57.577Z,7.00
2023-04-06T00:55:27.888Z,7.07
2023-04-06T00:57:55.577Z,7.05
2023-04-06T01:00:22.798Z,6.81
2023-04-06T01:02:55.429Z,6.53
2023-04-06T01:05:25.888Z,6.41
2023-04-06T01:07:56.714Z,6.17
2023-04-06T01:10:28.192Z,6.17
2023-04-06T01:13:18.069Z,6.08
2023-04-06T01:15:50.447Z,6.35
2023-04-06T01:18:27.860Z,6.29
2023-04-06T01:21:04.453Z,6.25
2023-04-06T01:23:31.654Z,6.48
2023-04-06T01:25:58.769Z,6.65
2023-04-06T01:28:26.811Z,6.57
2023-04-06T01:31:01.108Z,6.38
2023-04-06T01:33:48.959Z,6.39
2023-04-06T01:36:19.243Z,6.44
2023-04-06T01:38:51.346Z,6.45
2023-04-06T01:41:22.090Z,6.38
2023-04-06T01:43:55.525Z,6.48
2023-04-06T01:46:26.433Z,6.43
2023-04-06T01:48:53.852Z,6.42
2023-04-06T01:51:41.477Z,6.45
2023-04-06T01:54:12.478Z,6.45
2023-04-06T01:56:57.751Z,6.41
2023-04-06T01:59:34.716Z,6.45
2023-04-06T02:02:07.143Z,6.47
2023-04-06T02:04:35.946Z,6.47
2023-04-06T02:07:12.281Z,6.46
2023-04-06T02:09:39.861Z,6.36
2023-04-06T02:12:11.418Z,6.33
2023-04-06T02:14:38.501Z,6.32
2023-04-06T02:17:05.897Z,6.28
2023-04-06T02:19:33.213Z,6.21
2023-04-06T02:22:00.314Z,6.25
2023-04-06T02:24:27.462Z,6.21
2023-04-06T02:26:54.530Z,6.41
2023-04-06T02:29:21.822Z,6.48
2023-04-06T02:31:49.402Z,6.47
2023-04-06T02:34:18.753Z,6.52
2023-04-06T02:36:49.920Z,6.56
2023-04-06T02:39:18.418Z,6.64
2023-04-06T02:41:45.642Z,6.53
2023-04-06T02:44:15.415Z,6.72
2023-04-06T02:46:44.195Z,6.54
2023-04-06T02:49:11.450Z,6.46
2023-04-06T02:51:38.729Z,6.41
2023-04-06T02:54:20.030Z,6.43
2023-04-06T02:56:47.176Z,6.56
2023-04-06T02:59:14.616Z,6.61
2023-04-06T03:01:47.939Z,6.53
2023-04-06T03:04:15.209Z,6.54
2023-04-06T03:06:42.422Z,6.30
2023-04-06T03:09:20.818Z,6.21
2023-04-06T03:11:48.028Z,5.98
2023-04-06T03:14:15.785Z,5.79
2023-04-06T03:16:42.850Z,5.80
2023-04-06T03:19:12.421Z,5.97
2023-04-06T03:21:39.604Z,5.76
2023-04-06T03:24:07.110Z,5.67
2023-04-06T03:26:34.304Z,5.80
2023-04-06T03:29:05.501Z,5.85
2023-04-06T03:31:32.847Z,5.88
2023-04-06T03:34:06.350Z,5.63
2023-04-06T03:36:36.128Z,5.67
2023-04-06T03:39:04.567Z,5.73
2023-04-06T03:41:35.096Z,5.75
2023-04-06T03:44:34.312Z,5.73
2023-04-06T03:47:01.966Z,5.64
2023-04-06T03:49:29.273Z,5.50
2023-04-06T03:51:57.834Z,5.61
2023-04-06T03:54:24.973Z,5.78
2023-04-06T03:56:52.096Z,5.76
2023-04-06T03:59:19.351Z,5.61
2023-04-06T04:01:46.507Z,5.74
2023-04-06T04:04:13.698Z,5.67
2023-04-06T04:06:40.825Z,5.63
2023-04-06T04:09:09.251Z,5.43
2023-04-06T04:11:36.607Z,5.39
2023-04-06T04:14:04.425Z,5.53
2023-04-06T04:16:31.734Z,5.57
2023-04-06T04:19:01.916Z,5.56
2023-04-06T04:21:31.298Z,5.38
2023-04-06T04:23:59.625Z,5.52
2023-04-06T04:26:26.782Z,5.60
2023-04-06T04:28:54.763Z,5.31
2023-04-06T04:31:23.657Z,5.17
2023-04-06T04:33:55.441Z,5.14
2023-04-06T04:36:28.781Z,5.27
2023-04-06T04:38:58.234Z,5.17
2023-04-06T04:41:26.116Z,5.11
2023-04-06T04:43:53.671Z,5.04
2023-04-06T04:46:23.608Z,4.96
2023-04-06T04:48:51.412Z,5.08
2023-04-06T04:51:18.625Z,5.19
2023-04-06T04:54:03.206Z,5.04
2023-04-06T04:56:32.606Z,5.14
2023-04-06T04:59:15.742Z,5.13
2023-04-06T05:01:55.381Z,5.23
2023-04-06T05:04:28.538Z,5.31
2023-04-06T05:07:11.315Z,5.26
2023-04-06T05:09:41.000Z,5.22
2023-04-06T05:12:08.531Z,5.03
2023-04-06T05:14:42.787Z,4.94
2023-04-06T05:17:14.766Z,5.02
2023-04-06T05:19:41.914Z,5.14
2023-04-06T05:22:10.416Z,5.22
2023-04-06T05:24:41.168Z,5.30
2023-04-06T05:27:09.084Z,5.23
2023-04-06T05:29:36.638Z,5.20
2023-04-06T05:32:04.420Z,5.30
2023-04-06T05:34:32.004Z,5.29
2023-04-06T05:37:02.948Z,5.50
2023-04-06T05:39:30.302Z,5.66
2023-04-06T05:41:57.560Z,5.85
2023-04-06T05:44:34.735Z,6.01
2023-04-06T05:47:12.331Z,6.09
2023-04-06T05:49:42.831Z,6.26
2023-04-06T05:52:14.804Z,6.43
2023-04-06T05:54:45.749Z,6.60
2023-04-06T05:57:12.850Z,6.73
2023-04-06T05:59:40.481Z,6.74
2023-04-06T06:02:07.778Z,6.83
2023-04-06T06:04:39.750Z,7.16
2023-04-06T06:07:07.490Z,7.66
2023-04-06T06:09:43.660Z,7.83
2023-04-06T06:12:37.250Z,7.93
2023-04-06T06:15:04.954Z,7.98
2023-04-06T06:17:38.925Z,7.98
2023-04-06T06:20:07.499Z,8.30
2023-04-06T06:22:34.674Z,8.52
2023-04-06T06:25:03.316Z,8.71
2023-04-06T06:27:30.577Z,9.04
2023-04-06T06:29:57.709Z,9.10
2023-04-06T06:32:25.833Z,9.64
2023-04-06T06:34:54.076Z,9.50
2023-04-06T06:37:21.204Z,10.16
2023-04-06T06:39:49.471Z,10.35
2023-04-06T06:42:17.194Z,10.89
2023-04-06T06:44:51.171Z,11.60
2023-04-06T06:47:18.343Z,12.21
2023-04-06T06:49:45.419Z,13.71
2023-04-06T06:52:12.577Z,15.22
2023-04-06T06:54:39.789Z,15.76
2023-04-06T06:57:06.974Z,16.03
2023-04-06T06:59:35.359Z,16.27
2023-04-06T07:02:02.679Z,16.68
2023-04-06T07:04:29.908Z,16.89
2023-04-06T07:06:57.140Z,16.45
2023-04-06T07:09:24.346Z,15.69
2023-04-06T07:11:51.433Z,15.31
2023-04-06T07:14:18.693Z,15.57
2023-04-06T07:16:47.919Z,15.52
2023-04-06T07:19:15.876Z,15.22
2023-04-06T07:21:43.483Z,14.97
2023-04-06T07:24:11.468Z,15.67
2023-04-06T07:26:38.715Z,16.32
2023-04-06T07:29:06.004Z,15.76
2023-04-06T07:31:33.251Z,16.91
2023-04-06T07:34:00.528Z,17.02
2023-04-06T07:36:27.694Z,17.22
2023-04-06T07:38:55.336Z,17.47
2023-04-06T07:41:24.518Z,17.57
2023-04-06T07:43:51.664Z,18.04
2023-04-06T07:46:19.102Z,19.23
2023-04-06T07:48:46.677Z,19.58
2023-04-06T07:51:15.914Z,19.46
2023-04-06T07:53:47.107Z,18.55
2023-04-06T07:56:14.646Z,19.26
2023-04-06T07:58:41.904Z,18.92
2023-04-06T08:01:09.066Z,19.72
2023-04-06T08:03:36.684Z,19.05
2023-04-06T08:06:04.095Z,19.78
2023-04-06T08:08:31.817Z,19.49
2023-04-06T08:11:00.770Z,19.45
2023-04-06T08:13:29.381Z,19.45
2023-04-06T08:15:56.715Z,19.90
2023-04-06T08:18:23.778Z,20.99
2023-04-06T08:20:50.975Z,20.27
2023-04-06T08:23:18.183Z,20.78
2023-04-06T08:25:45.437Z,20.86
2023-04-06T08:28:12.662Z,20.57
2023-04-06T08:30:43.937Z,21.16
2023-04-06T08:33:11.822Z,20.85
2023-04-06T08:35:39.016Z,20.86
2023-04-06T08:38:07.138Z,20.48
2023-04-06T08:40:40.951Z,20.85
2023-04-06T08:43:10.839Z,20.64
2023-04-06T08:45:38.044Z,21.44
2023-04-06T08:48:07.660Z,21.57
2023-04-06T08:50:35.166Z,21.35
2023-04-06T08:53:02.527Z,21.68
2023-04-06T08:55:30.537Z,20.23
2023-04-06T08:57:57.937Z,20.64
2023-04-06T09:00:26.628Z,21.32
2023-04-06T09:02:57.200Z,20.54
2023-04-06T09:05:25.595Z,21.20
2023-04-06T09:07:52.967Z,21.57
2023-04-06T09:10:21.588Z,23.68
2023-04-06T09:12:48.672Z,22.57
2023-04-06T09:15:22.098Z,21.70
2023-04-06T09:17:52.828Z,21.44
2023-04-06T09:20:24.169Z,22.11
2023-04-06T09:22:51.253Z,21.48
2023-04-06T09:25:22.522Z,21.49
2023-04-06T09:27:58.877Z,22.47
2023-04-06T09:30:26.111Z,19.58
2023-04-06T09:32:54.477Z,20.09
2023-04-06T09:35:22.470Z,20.34
2023-04-06T09:37:50.645Z,20.80
2023-04-06T09:40:20.582Z,21.43
2023-04-06T09:42:48.235Z,21.83
2023-04-06T09:45:16.380Z,21.05
2023-04-06T09:47:46.141Z,20.25
2023-04-06T09:50:14.433Z,20.64
2023-04-06T09:52:43.457Z,21.29
2023-04-06T09:55:10.784Z,21.58
2023-04-06T09:57:38.051Z,21.78
2023-04-06T10:00:12.507Z,22.55
2023-04-06T10:02:47.008Z,21.34
2023-04-06T10:05:20.148Z,20.57
2023-04-06T10:07:59.628Z,21.31
2023-04-06T10:10:28.937Z,20.28
2023-04-06T10:12:56.877Z,21.38
2023-04-06T10:15:25.231Z,20.88
2023-04-06T10:17:52.486Z,20.72
2023-04-06T10:20:39.823Z,21.70
2023-04-06T10:23:21.756Z,21.83
2023-04-06T10:25:58.879Z,20.72
2023-04-06T10:28:26.821Z,20.01
2023-04-06T10:31:00.751Z,21.13
2023-04-06T10:33:28.540Z,22.73
2023-04-06T10:35:58.387Z,21.63
2023-04-06T10:38:54.645Z,20.60
2023-04-06T10:41:21.801Z,19.99
2023-04-06T10:43:55.936Z,20.39
2023-04-06T10:46:30.646Z,20.90
2023-04-06T10:48:58.080Z,22.03
2023-04-06T10:51:27.998Z,20.63
2023-04-06T10:53:55.741Z,21.01
2023-04-06T10:56:23.895Z,22.06
2023-04-06T10:58:52.560Z,21.10
2023-04-06T11:01:21.229Z,21.07
2023-04-06T11:03:49.964Z,21.44
2023-04-06T11:06:27.914Z,20.86
2023-04-06T11:08:55.320Z,20.82
2023-04-06T11:11:23.763Z,20.39
2023-04-06T11:13:51.876Z,20.03
2023-04-06T11:16:19.036Z,20.98
2023-04-06T11:18:50.244Z,19.92
2023-04-06T11:21:17.621Z,19.64
2023-04-06T11:23:44.762Z,19.84
2023-04-06T11:26:13.187Z,19.15
2023-04-06T11:28:44.167Z,19.16
2023-04-06T11:31:12.158Z,18.29
2023-04-06T11:33:39.817Z,19.52
2023-04-06T11:36:07.806Z,19.32
2023-04-06T11:38:35.023Z,19.74
2023-04-06T11:41:02.416Z,20.29
2023-04-06T11:43:32.715Z,19.91
2023-04-06T11:46:05.702Z,20.00
2023-04-06T11:48:32.919Z,19.34
2023-04-06T11:51:04.707Z,19.10
2023-04-06T11:53:31.879Z,19.26
2023-04-06T11:56:00.635Z,19.40
2023-04-06T11:58:28.219Z,19.65
2023-04-06T12:01:03.720Z,19.59
2023-04-06T12:03:30.878Z,19.34
2023-04-06T12:05:59.754Z,18.93
2023-04-06T12:08:26.998Z,18.86
2023-04-06T12:10:54.098Z,18.78
2023-04-06T12:13:21.381Z,18.79
2023-04-06T12:15:48.549Z,19.00
2023-04-06T12:18:15.613Z,19.75
2023-04-06T12:20:42.790Z,19.76
2023-04-06T12:23:09.897Z,19.59
2023-04-06T12:25:37.060Z,19.06
2023-04-06T12:28:04.125Z,19.27
2023-04-06T12:30:31.394Z,18.97
2023-04-06T12:32:58.716Z,18.38
2023-04-06T12:35:26.091Z,18.44
2023-04-06T12:37:53.223Z,18.84
2023-04-06T12:40:20.745Z,19.11
2023-04-06T12:42:47.960Z,19.85
2023-04-06T12:45:15.192Z,19.53
2023-04-06T12:47:42.465Z,19.38
2023-04-06T12:50:09.899Z,18.86
2023-04-06T12:52:37.526Z,18.98
2023-04-06T12:55:06.048Z,18.86
2023-04-06T12:57:33.220Z,18.86
2023-04-06T13:00:01.226Z,18.68
2023-04-06T13:02:28.650Z,18.75
2023-04-06T13:04:55.797Z,18.82
2023-04-06T13:07:23.476Z,19.06
2023-04-06T13:09:50.674Z,18.95
2023-04-06T13:12:17.861Z,18.86
2023-04-06T13:14:45.072Z,19.08
2023-04-06T13:17:12.150Z,18.64
2023-04-06T13:19:39.323Z,18.22
2023-04-06T13:22:06.390Z,18.71
2023-04-06T13:24:33.636Z,18.84
2023-04-06T13:27:01.676Z,18.64
2023-04-06T13:29:28.988Z,18.44
2023-04-06T13:31:56.346Z,19.06
2023-04-06T13:34:23.543Z,18.98
2023-04-06T13:36:50.777Z,18.52
2023-04-06T13:39:17.925Z,19.02
2023-04-06T13:41:45.701Z,18.79
2023-04-06T13:44:12.903Z,18.45
2023-04-06T13:46:39.990Z,18.95
2023-04-06T13:49:07.204Z,18.47
2023-04-06T13:51:34.398Z,18.68
2023-04-06T13:54:01.566Z,18.51
2023-04-06T13:56:28.608Z,18.10
2023-04-06T13:58:57.818Z,18.60
2023-04-06T14:01:26.062Z,18.65
2023-04-06T14:03:53.330Z,18.82
2023-04-06T14:06:30.334Z,17.53
2023-04-06T14:08:58.879Z,17.76
2023-04-06T14:11:26.005Z,17.74
2023-04-06T14:13:53.298Z,17.87
2023-04-06T14:16:22.475Z,17.64
2023-04-06T14:18:49.568Z,17.55
2023-04-06T14:21:17.146Z,17.90
2023-04-06T14:23:44.510Z,17.49
2023-04-06T14:26:12.515Z,17.52
2023-04-06T14:28:39.559Z,17.87
2023-04-06T14:31:14.282Z,17.96
2023-04-06T14:33:41.826Z,17.75
2023-04-06T14:36:09.706Z,17.63
2023-04-06T14:38:36.811Z,17.70
2023-04-06T14:41:03.913Z,17.68
2023-04-06T14:43:32.085Z,17.42
2023-04-06T14:46:02.012Z,17.27
2023-04-06T14:48:29.314Z,17.66
2023-04-06T14:50:56.734Z,17.49
2023-04-06T14:53:24.758Z,17.55
2023-04-06T14:55:54.511Z,17.20
2023-04-06T14:58:22.198Z,17.54
2023-04-06T15:00:50.088Z,17.23
2023-04-06T15:03:17.524Z,17.53
2023-04-06T15:05:44.896Z,17.40
2023-04-06T15:08:12.715Z,17.34
2023-04-06T15:10:40.078Z,17.74
2023-04-06T15:13:07.280Z,17.37
2023-04-06T15:15:34.363Z,17.02
2023-04-06T15:18:03.534Z,17.35
2023-04-06T15:20:30.716Z,17.30
2023-04-06T15:22:59.988Z,17.38
2023-04-06T15:25:27.105Z,17.41
2023-04-06T15:27:58.159Z,16.96
2023-04-06T15:30:26.729Z,17.02
2023-04-06T15:32:56.059Z,16.65
2023-04-06T15:35:23.236Z,16.58
2023-04-06T15:37:50.390Z,16.46
2023-04-06T15:40:17.563Z,16.34
2023-04-06T15:42:44.939Z,16.36
2023-04-06T15:45:12.091Z,16.33
2023-04-06T15:47:39.673Z,16.31
2023-04-06T15:50:07.380Z,16.15
2023-04-06T15:52:34.864Z,16.33
2023-04-06T15:55:03.572Z,16.25
2023-04-06T15:57:31.084Z,16.23
2023-04-06T15:59:58.693Z,16.02
2023-04-06T16:02:26.188Z,15.90
2023-04-06T16:05:02.741Z,15.93
2023-04-06T16:07:30.355Z,15.70
2023-04-06T16:09:57.584Z,15.65
2023-04-06T16:12:25.181Z,15.76
2023-04-06T16:14:52.918Z,15.86
2023-04-06T16:17:20.051Z,15.54
2023-04-06T16:19:47.123Z,15.71
2023-04-06T16:22:14.253Z,15.40
2023-04-06T16:24:42.212Z,15.50
2023-04-06T16:27:09.302Z,15.67
2023-04-06T16:29:37.236Z,15.71
2023-04-06T16:32:06.829Z,15.65
2023-04-06T16:34:34.071Z,15.37
2023-04-06T16:37:01.838Z,15.40
2023-04-06T16:39:29.123Z,15.44
2023-04-06T16:41:56.801Z,15.28
2023-04-06T16:44:24.077Z,15.45
2023-04-06T16:46:51.227Z,15.29
2023-04-06T16:49:20.206Z,15.43
2023-04-06T16:51:49.586Z,15.21
2023-04-06T16:54:17.118Z,15.02
2023-04-06T16:56:44.312Z,14.89
2023-04-06T16:59:11.570Z,14.97
2023-04-06T17:01:38.827Z,14.89
2023-04-06T17:04:06.101Z,14.95
2023-04-06T17:06:33.218Z,14.91
2023-04-06T17:09:00.521Z,15.03
2023-04-06T17:11:32.874Z,14.81
2023-04-06T17:14:10.657Z,14.64
2023-04-06T17:16:37.919Z,14.65
2023-04-06T17:19:05.067Z,14.44
2023-04-06T17:21:32.110Z,14.40
2023-04-06T17:23:59.171Z,14.73
2023-04-06T17:26:26.559Z,14.58
2023-04-06T17:28:53.665Z,14.45
2023-04-06T17:31:20.965Z,14.24
2023-04-06T17:33:48.411Z,14.50
2023-04-06T17:36:16.144Z,14.42
2023-04-06T17:38:44.311Z,14.28
2023-04-06T17:41:12.468Z,14.30
2023-04-06T17:43:39.668Z,14.14
2023-04-06T17:46:06.935Z,14.07
2023-04-06T17:48:34.202Z,14.12
2023-04-06T17:51:01.361Z,14.12
2023-04-06T17:53:32.290Z,14.14
2023-04-06T17:56:06.169Z,13.92
2023-04-06T17:58:33.308Z,13.95
2023-04-06T18:01:05.124Z,13.89
2023-04-06T18:03:32.245Z,13.75
2023-04-06T18:06:08.951Z,13.94
2023-04-06T18:08:35.992Z,13.79
2023-04-06T18:11:04.254Z,13.66
2023-04-06T18:13:31.319Z,13.55
2023-04-06T18:16:01.971Z,13.68
2023-04-06T18:18:29.171Z,13.45
2023-04-06T18:20:56.435Z,13.34
2023-04-06T18:23:23.583Z,13.25
2023-04-06T18:25:51.073Z,13.15
2023-04-06T18:28:18.242Z,13.24
2023-04-06T18:30:45.496Z,13.20
2023-04-06T18:33:12.588Z,13.21
2023-04-06T18:35:42.036Z,13.29
2023-04-06T18:38:09.149Z,13.15
2023-04-06T18:40:37.536Z,13.15
2023-04-06T18:43:06.255Z,13.09
2023-04-06T18:45:34.727Z,13.06
2023-04-06T18:48:01.858Z,13.00
2023-04-06T18:50:28.966Z,12.88
2023-04-06T18:52:56.223Z,12.76
2023-04-06T18:55:23.401Z,12.70
2023-04-06T18:57:50.608Z,12.62
2023-04-06T19:00:18.027Z,12.45
2023-04-06T19:02:45.822Z,12.53
2023-04-06T19:05:13.345Z,12.48
2023-04-06T19:07:42.129Z,12.31
2023-04-06T19:10:09.869Z,12.24
2023-04-06T19:12:38.788Z,12.36
2023-04-06T19:15:07.763Z,12.34
2023-04-06T19:17:35.407Z,12.29
2023-04-06T19:20:02.803Z,12.24
2023-04-06T19:22:29.980Z,12.32
2023-04-06T19:24:57.154Z,12.33
2023-04-06T19:27:24.254Z,12.34
2023-04-06T19:29:52.137Z,12.30
2023-04-06T19:32:19.237Z,12.27
2023-04-06T19:34:46.435Z,12.26
2023-04-06T19:37:13.513Z,12.15
2023-04-06T19:39:44.031Z,12.19
2023-04-06T19:42:12.239Z,12.09
2023-04-06T19:44:39.340Z,11.87
2023-04-06T19:47:06.584Z,11.83
2023-04-06T19:49:33.837Z,11.82
2023-04-06T19:52:00.938Z,11.80
2023-04-06T19:54:28.080Z,11.75
2023-04-06T19:56:55.813Z,11.66
2023-04-06T19:59:22.958Z,11.48
2023-04-06T20:01:50.181Z,11.52
2023-04-06T20:04:17.461Z,11.54
2023-04-06T20:06:44.674Z,11.51
2023-04-06T20:09:12.135Z,11.45
2023-04-06T20:11:39.227Z,11.37
2023-04-06T20:14:06.352Z,11.21
2023-04-06T20:16:33.560Z,11.11
2023-04-06T20:19:00.896Z,11.03
2023-04-06T20:21:27.962Z,11.13
2023-04-06T20:23:55.017Z,11.00
2023-04-06T20:26:22.113Z,10.98
2023-04-06T20:28:49.232Z,11.03
2023-04-06T20:31:16.407Z,11.01
2023-04-06T20:33:43.511Z,10.96
2023-04-06T20:36:11.421Z,10.97
2023-04-06T20:38:38.609Z,11.10
2023-04-06T20:41:07.644Z,11.08
2023-04-06T20:43:35.530Z,11.12
2023-04-06T20:46:03.123Z,11.08
2023-04-06T20:48:33.445Z,10.96
2023-04-06T20:51:03.211Z,10.83
2023-04-06T20:53:31.715Z,10.72
2023-04-06T20:56:01.072Z,10.56
2023-04-06T20:58:28.125Z,10.50
2023-04-06T21:00:55.429Z,10.46
2023-04-06T21:03:23.364Z,10.36
2023-04-06T21:05:57.308Z,10.48
2023-04-06T21:08:24.465Z,10.52
2023-04-06T21:10:51.560Z,10.46
2023-04-06T21:13:18.613Z,10.42
2023-04-06T21:15:45.719Z,10.50
2023-04-06T21:18:12.956Z,10.63
2023-04-06T21:20:40.166Z,10.53
2023-04-06T21:23:07.315Z,10.51
2023-04-06T21:25:36.596Z,10.38
2023-04-06T21:28:03.876Z,10.47
2023-04-06T21:30:36.865Z,10.48
2023-04-06T21:33:04.473Z,10.46
2023-04-06T21:35:31.724Z,10.49
2023-04-06T21:37:58.767Z,10.56
2023-04-06T21:40:25.906Z,10.56
2023-04-06T21:42:52.945Z,10.52
2023-04-06T21:45:20.616Z,10.48
2023-04-06T21:47:47.739Z,10.40
2023-04-06T21:50:14.990Z,10.29
2023-04-06T21:52:42.070Z,10.34
2023-04-06T21:55:09.392Z,10.33
2023-04-06T21:57:36.579Z,10.35
2023-04-06T22:00:10.326Z,10.39
2023-04-06T22:02:45.643Z,10.43
2023-04-06T22:05:13.238Z,10.35
2023-04-06T22:07:40.563Z,10.44
2023-04-06T22:10:08.281Z,10.26
2023-04-06T22:12:35.395Z,10.28
2023-04-06T22:15:02.562Z,10.43
2023-04-06T22:17:30.205Z,10.49
2023-04-06T22:19:57.358Z,10.34
2023-04-06T22:22:24.644Z,10.33
2023-04-06T22:24:51.780Z,10.23
2023-04-06T22:27:18.839Z,10.21
2023-04-06T22:29:45.940Z,10.13
2023-04-06T22:32:13.055Z,10.18
2023-04-06T22:34:40.183Z,10.04
2023-04-06T22:37:07.197Z,10.09
2023-04-06T22:39:34.349Z,10.09
2023-04-06T22:42:01.726Z,10.06
2023-04-06T22:44:28.772Z,9.95
2023-04-06T22:46:55.959Z,9.81
2023-04-06T22:49:23.019Z,9.64
2023-04-06T22:51:50.267Z,9.53
2023-04-06T22:54:17.608Z,9.67
2023-04-06T22:56:44.943Z,9.76
2023-04-06T22:59:12.065Z,9.85
2023-04-06T23:01:39.151Z,9.75
2023-04-06T23:04:06.501Z,9.68
2023-04-06T23:06:33.792Z,9.68
2023-04-06T23:09:00.959Z,9.59
2023-04-06T23:11:28.083Z,9.52
2023-04-06T23:13:55.147Z,9.70
2023-04-06T23:16:22.361Z,9.74
2023-04-06T23:18:49.472Z,9.82
2023-04-06T23:21:16.499Z,9.81
2023-04-06T23:23:43.524Z,9.64
2023-04-06T23:26:10.732Z,9.63
2023-04-06T23:28:37.757Z,9.59
2023-04-06T23:31:04.775Z,9.64
2023-04-06T23:33:31.815Z,9.49
2023-04-06T23:35:58.870Z,9.50
2023-04-06T23:38:25.984Z,9.51
2023-04-06T23:40:53.038Z,9.46
2023-04-06T23:43:20.109Z,9.45
2023-04-06T23:45:47.209Z,9.41
2023-04-06T23:48:14.249Z,9.29
2023-04-06T23:50:41.427Z,9.26
2023-04-06T23:53:08.538Z,9.24
2023-04-06T23:55:35.616Z,9.23
2023-04-06T23:58:04.087Z,8.97
